sensor_id;sensor_type;location;lat;lon;timestamp;P1;durP1;ratioP1;P2;durP2;ratioP2
3901;SDS011;1966;49.908;9.156;2022-08-21T00:01:47;9.50;;;8.40;;
3901;SDS011;1966;49.908;9.156;2022-08-21T00:06:46;11.50;;;9.80;;
3901;SDS011;1966;49.908;9.156;2022-08-21T00:11:46;9.80;;;8.73;;
3901;SDS011;1966;49.908;9.156;2022-08-21T00:16:47;11.30;;;9.10;;
3901;SDS011;1966;49.908;9.156;2022-08-21T00:21:47;9.73;;;8.40;;
3901;SDS011;1966;49.908;9.156;2022-08-21T00:26:46;12.87;;;9.20;;
3901;SDS011;1966;49.908;9.156;2022-08-21T00:31:47;10.30;;;9.20;;
3901;SDS011;1966;49.908;9.156;2022-08-21T00:36:47;13.47;;;8.50;;
3901;SDS011;1966;49.908;9.156;2022-08-21T00:41:46;11.20;;;9.30;;
3901;SDS011;1966;49.908;9.156;2022-08-21T00:46:47;11.63;;;9.20;;
3901;SDS011;1966;49.908;9.156;2022-08-21T00:51:48;12.80;;;9.63;;
3901;SDS011;1966;49.908;9.156;2022-08-21T00:56:49;11.17;;;9.37;;
3901;SDS011;1966;49.908;9.156;2022-08-21T01:01:51;11.13;;;9.93;;
3901;SDS011;1966;49.908;9.156;2022-08-21T01:06:50;10.60;;;9.40;;
3901;SDS011;1966;49.908;9.156;2022-08-21T01:11:50;16.57;;;9.50;;
3901;SDS011;1966;49.908;9.156;2022-08-21T01:16:51;11.50;;;8.93;;
3901;SDS011;1966;49.908;9.156;2022-08-21T01:21:53;13.23;;;9.20;;
3901;SDS011;1966;49.908;9.156;2022-08-21T01:26:52;14.30;;;9.93;;
3901;SDS011;1966;49.908;9.156;2022-08-21T01:31:52;10.63;;;9.40;;
3901;SDS011;1966;49.908;9.156;2022-08-21T01:36:53;11.13;;;9.93;;
3901;SDS011;1966;49.908;9.156;2022-08-21T01:41:53;13.07;;;8.90;;
3901;SDS011;1966;49.908;9.156;2022-08-21T01:46:53;11.13;;;9.53;;
3901;SDS011;1966;49.908;9.156;2022-08-21T01:51:54;11.83;;;9.80;;
3901;SDS011;1966;49.908;9.156;2022-08-21T01:56:54;16.00;;;10.27;;
3901;SDS011;1966;49.908;9.156;2022-08-21T02:01:54;10.73;;;9.60;;
3901;SDS011;1966;49.908;9.156;2022-08-21T02:06:55;13.10;;;10.07;;
3901;SDS011;1966;49.908;9.156;2022-08-21T02:11:54;13.07;;;9.80;;
3901;SDS011;1966;49.908;9.156;2022-08-21T02:16:54;11.20;;;10.00;;
3901;SDS011;1966;49.908;9.156;2022-08-21T02:21:55;13.20;;;10.60;;
3901;SDS011;1966;49.908;9.156;2022-08-21T02:26:55;13.53;;;10.47;;
3901;SDS011;1966;49.908;9.156;2022-08-21T02:31:55;11.80;;;10.30;;
3901;SDS011;1966;49.908;9.156;2022-08-21T02:36:55;14.67;;;10.30;;
3901;SDS011;1966;49.908;9.156;2022-08-21T02:41:55;14.03;;;10.07;;
3901;SDS011;1966;49.908;9.156;2022-08-21T02:46:55;11.30;;;9.93;;
3901;SDS011;1966;49.908;9.156;2022-08-21T02:51:55;12.17;;;9.73;;
3901;SDS011;1966;49.908;9.156;2022-08-21T02:56:55;13.93;;;11.13;;
3901;SDS011;1966;49.908;9.156;2022-08-21T03:01:55;12.03;;;9.83;;
3901;SDS011;1966;49.908;9.156;2022-08-21T03:06:56;12.23;;;10.20;;
3901;SDS011;1966;49.908;9.156;2022-08-21T03:11:55;12.57;;;10.50;;
3901;SDS011;1966;49.908;9.156;2022-08-21T03:16:55;15.03;;;10.97;;
3901;SDS011;1966;49.908;9.156;2022-08-21T03:21:56;12.70;;;10.47;;
3901;SDS011;1966;49.908;9.156;2022-08-21T03:26:56;15.03;;;11.30;;
3901;SDS011;1966;49.908;9.156;2022-08-21T03:31:56;13.63;;;10.50;;
3901;SDS011;1966;49.908;9.156;2022-08-21T03:36:57;13.40;;;10.40;;
3901;SDS011;1966;49.908;9.156;2022-08-21T03:41:56;13.97;;;10.27;;
3901;SDS011;1966;49.908;9.156;2022-08-21T03:46:56;13.20;;;10.20;;
3901;SDS011;1966;49.908;9.156;2022-08-21T03:51:57;13.63;;;10.20;;
3901;SDS011;1966;49.908;9.156;2022-08-21T03:56:57;12.40;;;10.53;;
3901;SDS011;1966;49.908;9.156;2022-08-21T04:01:57;11.53;;;10.10;;
3901;SDS011;1966;49.908;9.156;2022-08-21T04:06:59;14.67;;;11.10;;
3901;SDS011;1966;49.908;9.156;2022-08-21T04:11:59;14.07;;;11.03;;
3901;SDS011;1966;49.908;9.156;2022-08-21T04:16:58;14.50;;;11.20;;
3901;SDS011;1966;49.908;9.156;2022-08-21T04:21:59;13.83;;;10.80;;
3901;SDS011;1966;49.908;9.156;2022-08-21T04:26:59;13.00;;;10.70;;
3901;SDS011;1966;49.908;9.156;2022-08-21T04:31:58;13.67;;;10.60;;
3901;SDS011;1966;49.908;9.156;2022-08-21T04:36:59;13.10;;;10.60;;
3901;SDS011;1966;49.908;9.156;2022-08-21T04:41:59;12.27;;;10.03;;
3901;SDS011;1966;49.908;9.156;2022-08-21T04:46:58;13.90;;;10.57;;
3901;SDS011;1966;49.908;9.156;2022-08-21T04:51:59;14.30;;;10.97;;
3901;SDS011;1966;49.908;9.156;2022-08-21T04:57:00;12.83;;;10.43;;
3901;SDS011;1966;49.908;9.156;2022-08-21T05:02:01;13.03;;;10.50;;
3901;SDS011;1966;49.908;9.156;2022-08-21T05:07:03;14.40;;;10.40;;
3901;SDS011;1966;49.908;9.156;2022-08-21T05:12:04;11.77;;;10.30;;
3901;SDS011;1966;49.908;9.156;2022-08-21T05:17:04;13.10;;;10.43;;
3901;SDS011;1966;49.908;9.156;2022-08-21T05:22:05;11.60;;;9.87;;
3901;SDS011;1966;49.908;9.156;2022-08-21T05:27:04;12.90;;;10.57;;
3901;SDS011;1966;49.908;9.156;2022-08-21T05:32:07;13.03;;;10.83;;
3901;SDS011;1966;49.908;9.156;2022-08-21T05:37:11;11.03;;;9.93;;
3901;SDS011;1966;49.908;9.156;2022-08-21T05:42:11;11.80;;;9.93;;
3901;SDS011;1966;49.908;9.156;2022-08-21T05:47:10;15.73;;;11.10;;
3901;SDS011;1966;49.908;9.156;2022-08-21T05:52:12;13.30;;;10.83;;
3901;SDS011;1966;49.908;9.156;2022-08-21T05:57:11;12.80;;;10.20;;
3901;SDS011;1966;49.908;9.156;2022-08-21T06:02:11;11.10;;;9.87;;
3901;SDS011;1966;49.908;9.156;2022-08-21T06:07:12;11.13;;;9.93;;
3901;SDS011;1966;49.908;9.156;2022-08-21T06:12:11;11.23;;;10.03;;
3901;SDS011;1966;49.908;9.156;2022-08-21T06:17:11;11.57;;;10.00;;
3901;SDS011;1966;49.908;9.156;2022-08-21T06:22:14;10.97;;;9.87;;
3901;SDS011;1966;49.908;9.156;2022-08-21T06:27:14;14.40;;;11.60;;
3901;SDS011;1966;49.908;9.156;2022-08-21T06:32:14;13.13;;;10.87;;
3901;SDS011;1966;49.908;9.156;2022-08-21T06:37:15;14.93;;;11.50;;
3901;SDS011;1966;49.908;9.156;2022-08-21T06:42:15;14.40;;;10.63;;
3901;SDS011;1966;49.908;9.156;2022-08-21T06:47:15;13.60;;;10.07;;
3901;SDS011;1966;49.908;9.156;2022-08-21T06:52:16;12.57;;;10.77;;
3901;SDS011;1966;49.908;9.156;2022-08-21T06:57:15;13.17;;;10.30;;
3901;SDS011;1966;49.908;9.156;2022-08-21T07:02:15;14.80;;;10.17;;
3901;SDS011;1966;49.908;9.156;2022-08-21T07:07:16;12.83;;;9.80;;
3901;SDS011;1966;49.908;9.156;2022-08-21T07:12:15;10.50;;;8.70;;
3901;SDS011;1966;49.908;9.156;2022-08-21T07:17:15;9.73;;;8.03;;
3901;SDS011;1966;49.908;9.156;2022-08-21T07:22:16;11.47;;;8.63;;
3901;SDS011;1966;49.908;9.156;2022-08-21T07:27:17;10.83;;;8.17;;
3901;SDS011;1966;49.908;9.156;2022-08-21T07:32:16;8.17;;;7.37;;
3901;SDS011;1966;49.908;9.156;2022-08-21T07:37:17;9.87;;;7.60;;
3901;SDS011;1966;49.908;9.156;2022-08-21T07:42:17;14.10;;;8.00;;
3901;SDS011;1966;49.908;9.156;2022-08-21T07:47:16;11.37;;;8.53;;
3901;SDS011;1966;49.908;9.156;2022-08-21T07:52:17;16.47;;;9.30;;
3901;SDS011;1966;49.908;9.156;2022-08-21T07:57:18;11.33;;;9.37;;
3901;SDS011;1966;49.908;9.156;2022-08-21T08:02:24;11.47;;;9.53;;
3901;SDS011;1966;49.908;9.156;2022-08-21T08:07:25;14.90;;;11.90;;
3901;SDS011;1966;49.908;9.156;2022-08-21T08:12:25;13.90;;;9.43;;
3901;SDS011;1966;49.908;9.156;2022-08-21T08:17:27;10.10;;;9.03;;
3901;SDS011;1966;49.908;9.156;2022-08-21T08:22:29;12.97;;;9.90;;
3901;SDS011;1966;49.908;9.156;2022-08-21T08:27:28;13.63;;;11.00;;
3901;SDS011;1966;49.908;9.156;2022-08-21T08:32:28;11.77;;;9.87;;
3901;SDS011;1966;49.908;9.156;2022-08-21T08:37:29;12.40;;;8.53;;
3901;SDS011;1966;49.908;9.156;2022-08-21T08:42:29;11.27;;;9.17;;
3901;SDS011;1966;49.908;9.156;2022-08-21T08:47:31;13.07;;;10.87;;
3901;SDS011;1966;49.908;9.156;2022-08-21T08:52:33;12.20;;;9.63;;
3901;SDS011;1966;49.908;9.156;2022-08-21T08:57:34;11.50;;;8.47;;
3901;SDS011;1966;49.908;9.156;2022-08-21T09:02:34;12.30;;;8.40;;
3901;SDS011;1966;49.908;9.156;2022-08-21T09:07:38;9.77;;;8.50;;
3901;SDS011;1966;49.908;9.156;2022-08-21T09:12:44;12.23;;;7.70;;
3901;SDS011;1966;49.908;9.156;2022-08-21T09:17:51;9.10;;;7.77;;
3901;SDS011;1966;49.908;9.156;2022-08-21T09:23:00;8.80;;;6.30;;
3901;SDS011;1966;49.908;9.156;2022-08-21T09:28:01;9.70;;;7.40;;
3901;SDS011;1966;49.908;9.156;2022-08-21T09:33:01;10.63;;;7.90;;
3901;SDS011;1966;49.908;9.156;2022-08-21T09:38:02;9.73;;;6.53;;
3901;SDS011;1966;49.908;9.156;2022-08-21T09:43:05;12.30;;;6.53;;
3901;SDS011;1966;49.908;9.156;2022-08-21T09:48:08;6.53;;;5.90;;
3901;SDS011;1966;49.908;9.156;2022-08-21T09:53:16;9.93;;;7.23;;
3901;SDS011;1966;49.908;9.156;2022-08-21T09:58:17;7.67;;;4.83;;
3901;SDS011;1966;49.908;9.156;2022-08-21T10:03:19;7.07;;;5.37;;
3901;SDS011;1966;49.908;9.156;2022-08-21T10:08:21;11.37;;;4.90;;
3901;SDS011;1966;49.908;9.156;2022-08-21T10:13:23;5.33;;;4.13;;
3901;SDS011;1966;49.908;9.156;2022-08-21T10:18:26;6.17;;;4.63;;
3901;SDS011;1966;49.908;9.156;2022-08-21T10:23:33;5.87;;;4.40;;
3901;SDS011;1966;49.908;9.156;2022-08-21T10:28:35;7.17;;;4.53;;
3901;SDS011;1966;49.908;9.156;2022-08-21T10:33:39;6.10;;;4.30;;
3901;SDS011;1966;49.908;9.156;2022-08-21T10:38:49;7.43;;;3.70;;
3901;SDS011;1966;49.908;9.156;2022-08-21T10:43:52;9.17;;;4.40;;
3901;SDS011;1966;49.908;9.156;2022-08-21T10:48:54;12.63;;;4.13;;
3901;SDS011;1966;49.908;9.156;2022-08-21T10:54:00;4.90;;;3.90;;
3901;SDS011;1966;49.908;9.156;2022-08-21T10:59:05;9.33;;;4.43;;
3901;SDS011;1966;49.908;9.156;2022-08-21T11:04:09;8.40;;;4.77;;
3901;SDS011;1966;49.908;9.156;2022-08-21T11:09:13;6.20;;;4.10;;
3901;SDS011;1966;49.908;9.156;2022-08-21T11:14:17;9.17;;;4.63;;
3901;SDS011;1966;49.908;9.156;2022-08-21T11:19:19;6.65;;;4.30;;
3901;SDS011;1966;49.908;9.156;2022-08-21T11:24:24;5.35;;;3.95;;
3901;SDS011;1966;49.908;9.156;2022-08-21T11:29:27;6.50;;;3.70;;
3901;SDS011;1966;49.908;9.156;2022-08-21T11:34:32;6.03;;;3.78;;
3901;SDS011;1966;49.908;9.156;2022-08-21T11:39:36;4.10;;;3.28;;
3901;SDS011;1966;49.908;9.156;2022-08-21T11:44:41;5.78;;;3.67;;
3901;SDS011;1966;49.908;9.156;2022-08-21T11:49:46;3.40;;;3.10;;
3901;SDS011;1966;49.908;9.156;2022-08-21T11:54:51;3.38;;;3.08;;
3901;SDS011;1966;49.908;9.156;2022-08-21T11:59:54;5.40;;;3.50;;
3901;SDS011;1966;49.908;9.156;2022-08-21T12:04:56;3.58;;;3.20;;
3901;SDS011;1966;49.908;9.156;2022-08-21T12:09:59;3.78;;;3.20;;
3901;SDS011;1966;49.908;9.156;2022-08-21T12:15:14;4.13;;;3.67;;
3901;SDS011;1966;49.908;9.156;2022-08-21T12:20:16;3.00;;;2.70;;
3901;SDS011;1966;49.908;9.156;2022-08-21T12:25:18;3.30;;;3.00;;
3901;SDS011;1966;49.908;9.156;2022-08-21T12:30:20;3.70;;;3.13;;
3901;SDS011;1966;49.908;9.156;2022-08-21T12:35:21;3.10;;;2.80;;
3901;SDS011;1966;49.908;9.156;2022-08-21T12:40:25;3.47;;;3.17;;
3901;SDS011;1966;49.908;9.156;2022-08-21T12:45:27;3.42;;;2.78;;
3901;SDS011;1966;49.908;9.156;2022-08-21T12:50:29;2.72;;;2.53;;
3901;SDS011;1966;49.908;9.156;2022-08-21T12:55:34;3.42;;;2.70;;
3901;SDS011;1966;49.908;9.156;2022-08-21T13:00:33;2.63;;;2.53;;
3901;SDS011;1966;49.908;9.156;2022-08-21T13:05:34;2.60;;;2.40;;
3901;SDS011;1966;49.908;9.156;2022-08-21T13:10:36;3.25;;;3.05;;
3901;SDS011;1966;49.908;9.156;2022-08-21T13:15:37;2.85;;;2.65;;
3901;SDS011;1966;49.908;9.156;2022-08-21T13:20:39;3.20;;;2.90;;
3901;SDS011;1966;49.908;9.156;2022-08-21T13:25:40;3.85;;;3.03;;
3901;SDS011;1966;49.908;9.156;2022-08-21T13:30:40;3.72;;;3.40;;
3901;SDS011;1966;49.908;9.156;2022-08-21T13:35:49;3.05;;;2.72;;
3901;SDS011;1966;49.908;9.156;2022-08-21T13:40:51;2.60;;;2.40;;
3901;SDS011;1966;49.908;9.156;2022-08-21T13:45:53;4.63;;;2.75;;
3901;SDS011;1966;49.908;9.156;2022-08-21T13:50:52;5.38;;;3.08;;
3901;SDS011;1966;49.908;9.156;2022-08-21T13:55:54;3.67;;;2.70;;
3901;SDS011;1966;49.908;9.156;2022-08-21T14:00:54;2.85;;;2.63;;
3901;SDS011;1966;49.908;9.156;2022-08-21T14:05:54;3.20;;;2.40;;
3901;SDS011;1966;49.908;9.156;2022-08-21T14:10:55;5.20;;;3.05;;
3901;SDS011;1966;49.908;9.156;2022-08-21T14:15:56;3.92;;;2.50;;
3901;SDS011;1966;49.908;9.156;2022-08-21T14:21:05;2.88;;;2.67;;
3901;SDS011;1966;49.908;9.156;2022-08-21T14:26:07;3.33;;;2.38;;
3901;SDS011;1966;49.908;9.156;2022-08-21T14:31:13;2.60;;;2.40;;
3901;SDS011;1966;49.908;9.156;2022-08-21T14:36:13;2.95;;;2.70;;
3901;SDS011;1966;49.908;9.156;2022-08-21T14:41:16;4.30;;;2.85;;
3901;SDS011;1966;49.908;9.156;2022-08-21T14:46:17;2.63;;;2.42;;
3901;SDS011;1966;49.908;9.156;2022-08-21T14:51:17;3.05;;;2.70;;
3901;SDS011;1966;49.908;9.156;2022-08-21T14:56:19;2.92;;;2.72;;
3901;SDS011;1966;49.908;9.156;2022-08-21T15:01:20;2.88;;;2.67;;
3901;SDS011;1966;49.908;9.156;2022-08-21T15:06:20;3.38;;;2.60;;
3901;SDS011;1966;49.908;9.156;2022-08-21T15:11:21;4.45;;;2.90;;
3901;SDS011;1966;49.908;9.156;2022-08-21T15:16:22;2.97;;;2.78;;
3901;SDS011;1966;49.908;9.156;2022-08-21T15:21:22;4.43;;;2.60;;
3901;SDS011;1966;49.908;9.156;2022-08-21T15:26:23;3.17;;;2.88;;
3901;SDS011;1966;49.908;9.156;2022-08-21T15:31:22;3.38;;;2.85;;
3901;SDS011;1966;49.908;9.156;2022-08-21T15:36:22;2.85;;;2.63;;
3901;SDS011;1966;49.908;9.156;2022-08-21T15:41:23;4.03;;;2.63;;
3901;SDS011;1966;49.908;9.156;2022-08-21T15:46:23;2.70;;;2.50;;
3901;SDS011;1966;49.908;9.156;2022-08-21T15:51:22;2.70;;;2.50;;
3901;SDS011;1966;49.908;9.156;2022-08-21T15:56:24;2.70;;;2.50;;
3901;SDS011;1966;49.908;9.156;2022-08-21T16:01:24;3.05;;;2.85;;
3901;SDS011;1966;49.908;9.156;2022-08-21T16:06:23;3.10;;;2.80;;
3901;SDS011;1966;49.908;9.156;2022-08-21T16:11:24;2.90;;;2.53;;
3901;SDS011;1966;49.908;9.156;2022-08-21T16:16:24;3.38;;;2.65;;
3901;SDS011;1966;49.908;9.156;2022-08-21T16:21:24;2.53;;;2.33;;
3901;SDS011;1966;49.908;9.156;2022-08-21T16:26:24;4.55;;;3.17;;
3901;SDS011;1966;49.908;9.156;2022-08-21T16:31:25;4.40;;;3.05;;
3901;SDS011;1966;49.908;9.156;2022-08-21T16:36:25;3.63;;;2.63;;
3901;SDS011;1966;49.908;9.156;2022-08-21T16:41:28;4.75;;;3.10;;
3901;SDS011;1966;49.908;9.156;2022-08-21T16:46:30;3.13;;;2.85;;
3901;SDS011;1966;49.908;9.156;2022-08-21T16:51:29;3.17;;;2.88;;
3901;SDS011;1966;49.908;9.156;2022-08-21T16:56:31;4.68;;;3.30;;
3901;SDS011;1966;49.908;9.156;2022-08-21T17:01:31;4.97;;;3.33;;
3901;SDS011;1966;49.908;9.156;2022-08-21T17:06:31;3.03;;;2.78;;
3901;SDS011;1966;49.908;9.156;2022-08-21T17:11:34;3.40;;;2.97;;
3901;SDS011;1966;49.908;9.156;2022-08-21T17:16:34;3.47;;;3.08;;
3901;SDS011;1966;49.908;9.156;2022-08-21T17:21:34;4.30;;;3.55;;
3901;SDS011;1966;49.908;9.156;2022-08-21T17:26:35;3.45;;;2.95;;
3901;SDS011;1966;49.908;9.156;2022-08-21T17:31:35;3.53;;;3.22;;
3901;SDS011;1966;49.908;9.156;2022-08-21T17:36:35;3.85;;;2.83;;
3901;SDS011;1966;49.908;9.156;2022-08-21T17:41:36;3.47;;;3.15;;
3901;SDS011;1966;49.908;9.156;2022-08-21T17:46:37;9.60;;;3.40;;
3901;SDS011;1966;49.908;9.156;2022-08-21T17:51:37;5.13;;;3.40;;
3901;SDS011;1966;49.908;9.156;2022-08-21T17:56:38;4.30;;;3.73;;
3901;SDS011;1966;49.908;9.156;2022-08-21T18:01:40;6.47;;;3.90;;
3901;SDS011;1966;49.908;9.156;2022-08-21T18:06:41;5.17;;;3.60;;
3901;SDS011;1966;49.908;9.156;2022-08-21T18:11:42;7.20;;;4.00;;
3901;SDS011;1966;49.908;9.156;2022-08-21T18:16:42;6.20;;;4.40;;
3901;SDS011;1966;49.908;9.156;2022-08-21T18:21:42;4.87;;;4.40;;
3901;SDS011;1966;49.908;9.156;2022-08-21T18:26:43;5.47;;;4.20;;
3901;SDS011;1966;49.908;9.156;2022-08-21T18:31:43;8.70;;;4.53;;
3901;SDS011;1966;49.908;9.156;2022-08-21T18:36:43;8.07;;;4.97;;
3901;SDS011;1966;49.908;9.156;2022-08-21T18:41:44;6.43;;;4.77;;
3901;SDS011;1966;49.908;9.156;2022-08-21T18:46:45;5.60;;;4.60;;
3901;SDS011;1966;49.908;9.156;2022-08-21T18:51:46;7.60;;;4.77;;
3901;SDS011;1966;49.908;9.156;2022-08-21T18:56:47;5.27;;;4.40;;
3901;SDS011;1966;49.908;9.156;2022-08-21T19:01:47;4.70;;;4.30;;
3901;SDS011;1966;49.908;9.156;2022-08-21T19:06:47;4.53;;;4.13;;
3901;SDS011;1966;49.908;9.156;2022-08-21T19:11:48;5.93;;;4.30;;
3901;SDS011;1966;49.908;9.156;2022-08-21T19:16:48;5.80;;;4.77;;
3901;SDS011;1966;49.908;9.156;2022-08-21T19:21:48;5.57;;;4.97;;
3901;SDS011;1966;49.908;9.156;2022-08-21T19:26:49;8.80;;;4.60;;
3901;SDS011;1966;49.908;9.156;2022-08-21T19:31:48;8.50;;;4.73;;
3901;SDS011;1966;49.908;9.156;2022-08-21T19:36:48;5.93;;;4.73;;
3901;SDS011;1966;49.908;9.156;2022-08-21T19:41:51;5.10;;;4.60;;
3901;SDS011;1966;49.908;9.156;2022-08-21T19:46:51;9.13;;;4.80;;
3901;SDS011;1966;49.908;9.156;2022-08-21T19:51:52;8.70;;;5.10;;
3901;SDS011;1966;49.908;9.156;2022-08-21T19:56:54;5.17;;;4.67;;
3901;SDS011;1966;49.908;9.156;2022-08-21T20:01:54;6.07;;;4.90;;
3901;SDS011;1966;49.908;9.156;2022-08-21T20:06:53;5.67;;;4.40;;
3901;SDS011;1966;49.908;9.156;2022-08-21T20:11:55;6.87;;;4.53;;
3901;SDS011;1966;49.908;9.156;2022-08-21T20:16:55;6.10;;;4.90;;
3901;SDS011;1966;49.908;9.156;2022-08-21T20:21:56;5.97;;;5.00;;
3901;SDS011;1966;49.908;9.156;2022-08-21T20:26:57;7.23;;;4.70;;
3901;SDS011;1966;49.908;9.156;2022-08-21T20:31:57;9.90;;;5.03;;
3901;SDS011;1966;49.908;9.156;2022-08-21T20:36:57;10.07;;;5.07;;
3901;SDS011;1966;49.908;9.156;2022-08-21T20:41:58;4.93;;;4.37;;
3901;SDS011;1966;49.908;9.156;2022-08-21T20:46:58;9.00;;;5.60;;
3901;SDS011;1966;49.908;9.156;2022-08-21T20:51:58;5.43;;;4.93;;
3901;SDS011;1966;49.908;9.156;2022-08-21T20:57:00;5.80;;;5.20;;
3901;SDS011;1966;49.908;9.156;2022-08-21T21:02:06;13.87;;;5.80;;
3901;SDS011;1966;49.908;9.156;2022-08-21T21:07:10;8.00;;;5.10;;
3901;SDS011;1966;49.908;9.156;2022-08-21T21:12:14;10.33;;;5.20;;
3901;SDS011;1966;49.908;9.156;2022-08-21T21:17:15;7.40;;;5.70;;
3901;SDS011;1966;49.908;9.156;2022-08-21T21:22:16;7.83;;;5.50;;
3901;SDS011;1966;49.908;9.156;2022-08-21T21:27:21;5.37;;;4.87;;
3901;SDS011;1966;49.908;9.156;2022-08-21T21:32:21;6.40;;;4.87;;
3901;SDS011;1966;49.908;9.156;2022-08-21T21:37:23;7.30;;;5.53;;
3901;SDS011;1966;49.908;9.156;2022-08-21T21:42:25;6.97;;;5.80;;
3901;SDS011;1966;49.908;9.156;2022-08-21T21:47:30;8.23;;;5.80;;
3901;SDS011;1966;49.908;9.156;2022-08-21T21:52:45;13.90;;;6.23;;
3901;SDS011;1966;49.908;9.156;2022-08-21T21:57:57;8.67;;;5.40;;
3901;SDS011;1966;49.908;9.156;2022-08-21T22:03:03;16.80;;;6.57;;
3901;SDS011;1966;49.908;9.156;2022-08-21T22:08:05;7.57;;;5.80;;
3901;SDS011;1966;49.908;9.156;2022-08-21T22:13:09;10.60;;;6.07;;
3901;SDS011;1966;49.908;9.156;2022-08-21T22:18:14;6.20;;;5.53;;
3901;SDS011;1966;49.908;9.156;2022-08-21T22:23:16;8.40;;;5.57;;
3901;SDS011;1966;49.908;9.156;2022-08-21T22:28:18;7.50;;;6.43;;
3901;SDS011;1966;49.908;9.156;2022-08-21T22:33:19;9.60;;;6.37;;
3901;SDS011;1966;49.908;9.156;2022-08-21T22:38:23;9.97;;;6.07;;
3901;SDS011;1966;49.908;9.156;2022-08-21T22:43:27;7.33;;;5.93;;
3901;SDS011;1966;49.908;9.156;2022-08-21T22:48:27;7.93;;;5.73;;
3901;SDS011;1966;49.908;9.156;2022-08-21T22:53:28;11.27;;;6.20;;
3901;SDS011;1966;49.908;9.156;2022-08-21T22:58:30;7.10;;;5.77;;
3901;SDS011;1966;49.908;9.156;2022-08-21T23:03:32;7.77;;;6.30;;
3901;SDS011;1966;49.908;9.156;2022-08-21T23:08:33;7.17;;;5.90;;
3901;SDS011;1966;49.908;9.156;2022-08-21T23:13:39;11.87;;;6.87;;
3901;SDS011;1966;49.908;9.156;2022-08-21T23:18:42;6.67;;;5.97;;
3901;SDS011;1966;49.908;9.156;2022-08-21T23:23:48;6.80;;;5.43;;
3901;SDS011;1966;49.908;9.156;2022-08-21T23:28:56;6.10;;;5.50;;
3901;SDS011;1966;49.908;9.156;2022-08-21T23:34:01;7.17;;;5.87;;
3901;SDS011;1966;49.908;9.156;2022-08-21T23:39:10;6.10;;;5.50;;
3901;SDS011;1966;49.908;9.156;2022-08-21T23:44:17;10.60;;;6.40;;
3901;SDS011;1966;49.908;9.156;2022-08-21T23:49:23;7.80;;;6.20;;
3901;SDS011;1966;49.908;9.156;2022-08-21T23:54:28;11.00;;;6.70;;
3901;SDS011;1966;49.908;9.156;2022-08-21T23:59:34;8.37;;;5.90;;
